createdAt,value
2018-05-01T00:01:04.850Z,8.64
2018-05-01T00:02:12.940Z,8.69
2018-05-01T00:03:20.980Z,8.71
2018-05-01T00:04:29.036Z,8.61
2018-05-01T00:05:37.108Z,8.63
2018-05-01T00:06:45.136Z,8.75
2018-05-01T00:07:53.234Z,8.74
2018-05-01T00:09:01.292Z,8.64
2018-05-01T00:10:09.342Z,8.64
2018-05-01T00:11:17.405Z,8.66
2018-05-01T00:12:25.457Z,8.66
2018-05-01T00:13:33.532Z,8.72
2018-05-01T00:14:41.584Z,8.74
2018-05-01T00:15:49.652Z,8.72
2018-05-01T00:16:57.701Z,8.74
2018-05-01T00:18:05.770Z,8.68
2018-05-01T00:19:13.830Z,8.66
2018-05-01T00:20:21.901Z,8.72
2018-05-01T00:21:29.950Z,8.69
2018-05-01T00:22:38.010Z,8.68
2018-05-01T00:23:46.072Z,8.68
2018-05-01T00:24:54.125Z,8.59
2018-05-01T00:26:02.174Z,8.63
2018-05-01T00:27:10.252Z,8.64
2018-05-01T00:28:18.327Z,8.63
2018-05-01T00:29:26.362Z,8.60
2018-05-01T00:30:34.423Z,8.64
2018-05-01T00:31:42.489Z,8.63
2018-05-01T00:32:50.552Z,8.66
2018-05-01T00:33:58.608Z,8.63
2018-05-01T00:35:06.666Z,8.66
2018-05-01T00:36:14.729Z,8.60
2018-05-01T00:37:22.797Z,8.57
2018-05-01T00:38:30.897Z,8.69
2018-05-01T00:39:38.906Z,8.69
2018-05-01T00:40:46.966Z,8.74
2018-05-01T00:41:55.012Z,8.66
2018-05-01T00:43:03.087Z,8.69
2018-05-01T00:44:11.160Z,8.69
2018-05-01T00:45:19.196Z,8.66
2018-05-01T00:46:27.275Z,8.68
2018-05-01T00:47:35.303Z,8.61
2018-05-01T00:48:43.384Z,8.63
2018-05-01T00:49:51.490Z,8.66
2018-05-01T00:50:59.523Z,8.64
2018-05-01T00:52:07.588Z,8.59
2018-05-01T00:53:15.627Z,8.54
2018-05-01T00:54:23.690Z,8.64
2018-05-01T00:55:31.748Z,8.54
2018-05-01T00:56:39.825Z,8.46
2018-05-01T00:57:47.884Z,8.49
2018-05-01T00:58:55.939Z,8.41
2018-05-01T01:00:03.992Z,8.44
2018-05-01T01:01:12.094Z,8.46
2018-05-01T01:02:20.129Z,8.39
2018-05-01T01:03:28.185Z,8.34
2018-05-01T01:04:36.239Z,8.41
2018-05-01T01:05:44.311Z,8.27
2018-05-01T01:06:52.355Z,8.27
2018-05-01T01:08:00.425Z,8.34
2018-05-01T01:09:08.478Z,8.32
2018-05-01T01:10:16.588Z,8.28
2018-05-01T01:11:24.583Z,8.24
2018-05-01T01:12:32.658Z,8.27
2018-05-01T01:13:40.724Z,8.17
2018-05-01T01:14:48.780Z,8.21
2018-05-01T01:15:56.841Z,8.17
2018-05-01T01:17:04.879Z,8.11
2018-05-01T01:18:12.962Z,8.14
2018-05-01T01:19:21.010Z,8.11
2018-05-01T01:20:29.079Z,8.17
2018-05-01T01:21:37.124Z,8.08
2018-05-01T01:22:45.173Z,8.13
2018-05-01T01:23:53.257Z,8.14
2018-05-01T01:25:01.326Z,8.16
2018-05-01T01:26:09.382Z,8.11
2018-05-01T01:27:17.437Z,8.09
2018-05-01T01:28:25.479Z,8.05
2018-05-01T01:29:33.536Z,8.09
2018-05-01T01:30:41.621Z,8.08
2018-05-01T01:31:49.669Z,8.13
2018-05-01T01:32:57.737Z,8.03
2018-05-01T01:34:05.799Z,8.14
2018-05-01T01:35:13.858Z,8.08
2018-05-01T01:36:21.926Z,8.08
2018-05-01T01:37:29.972Z,8.03
2018-05-01T01:38:38.039Z,8.06
2018-05-01T01:39:46.099Z,8.05
2018-05-01T01:40:54.162Z,8.03
2018-05-01T01:42:02.222Z,8.13
2018-05-01T01:43:10.274Z,7.98
2018-05-01T01:44:18.333Z,8.05
2018-05-01T01:45:26.390Z,8.06
2018-05-01T01:46:34.446Z,8.01
2018-05-01T01:47:42.526Z,8.11
2018-05-01T01:48:50.573Z,8.02
2018-05-01T01:49:58.655Z,7.99
2018-05-01T01:51:06.697Z,7.99
2018-05-01T01:52:14.739Z,8.13
2018-05-01T01:53:22.801Z,7.95
2018-05-01T01:54:30.886Z,8.03
2018-05-01T01:55:38.925Z,7.98
2018-05-01T01:56:46.992Z,8.09
2018-05-01T01:57:55.035Z,8.09
2018-05-01T01:59:03.110Z,8.05
2018-05-01T02:00:11.172Z,8.01
2018-05-01T02:01:19.229Z,8.01
2018-05-01T02:02:27.300Z,8.05
2018-05-01T02:03:35.331Z,7.99
2018-05-01T02:04:43.410Z,7.98
2018-05-01T02:05:51.454Z,7.96
2018-05-01T02:06:59.523Z,8.03
2018-05-01T02:08:07.588Z,8.02
2018-05-01T02:09:15.652Z,8.03
2018-05-01T02:10:23.712Z,8.06
2018-05-01T02:11:31.772Z,8.08
2018-05-01T02:12:39.829Z,7.98
2018-05-01T02:13:47.897Z,7.93
2018-05-01T02:14:55.945Z,8.08
2018-05-01T02:16:04.010Z,7.98
2018-05-01T02:17:12.055Z,7.99
2018-05-01T02:18:20.133Z,7.99
2018-05-01T02:19:28.184Z,7.98
2018-05-01T02:20:36.249Z,7.98
2018-05-01T02:21:44.314Z,7.98
2018-05-01T02:22:52.365Z,7.98
2018-05-01T02:24:00.416Z,7.91
2018-05-01T02:25:08.481Z,7.87
2018-05-01T02:26:16.551Z,7.90
2018-05-01T02:27:24.588Z,7.91
2018-05-01T02:28:32.673Z,7.91
2018-05-01T02:29:40.739Z,7.95
2018-05-01T02:30:48.787Z,7.90
2018-05-01T02:31:56.833Z,7.91
2018-05-01T02:33:04.879Z,7.91
2018-05-01T02:34:12.959Z,7.96
2018-05-01T02:35:21.039Z,7.90
2018-05-01T02:36:29.079Z,7.87
2018-05-01T02:37:37.151Z,7.85
2018-05-01T02:38:45.181Z,7.93
2018-05-01T02:39:53.265Z,8.01
2018-05-01T02:41:01.329Z,7.88
2018-05-01T02:42:09.446Z,7.87
2018-05-01T02:43:17.451Z,8.02
2018-05-01T02:44:25.502Z,8.01
2018-05-01T02:45:33.627Z,7.93
2018-05-01T02:46:41.615Z,7.88
2018-05-01T02:47:49.677Z,7.98
2018-05-01T02:48:57.747Z,7.93
2018-05-01T02:50:05.812Z,7.87
2018-05-01T02:51:13.864Z,7.90
2018-05-01T02:52:21.919Z,7.93
2018-05-01T02:53:29.972Z,7.95
2018-05-01T02:54:38.027Z,7.90
2018-05-01T02:55:46.111Z,7.95
2018-05-01T02:56:54.182Z,7.90
2018-05-01T02:58:02.216Z,7.95
2018-05-01T02:59:10.288Z,8.03
2018-05-01T03:00:18.327Z,7.99
2018-05-01T03:01:26.395Z,7.96
2018-05-01T03:02:34.460Z,7.91
2018-05-01T03:03:42.517Z,7.95
2018-05-01T03:04:50.585Z,7.98
2018-05-01T03:05:58.630Z,7.90
2018-05-01T03:07:06.693Z,7.98
2018-05-01T03:08:14.764Z,7.99
2018-05-01T03:09:22.810Z,7.95
2018-05-01T03:10:30.887Z,7.95
2018-05-01T03:11:38.941Z,7.88
2018-05-01T03:12:47.010Z,7.87
2018-05-01T03:13:55.042Z,7.93
2018-05-01T03:15:03.128Z,7.90
2018-05-01T03:16:11.171Z,7.90
2018-05-01T03:17:19.236Z,7.84
2018-05-01T03:18:27.299Z,7.85
2018-05-01T03:19:35.328Z,7.84
2018-05-01T03:20:43.402Z,7.85
2018-05-01T03:21:51.469Z,7.81
2018-05-01T03:22:59.530Z,7.85
2018-05-01T03:24:07.582Z,7.83
2018-05-01T03:25:15.653Z,7.78
2018-05-01T03:26:23.710Z,7.83
2018-05-01T03:27:31.770Z,7.85
2018-05-01T03:28:39.824Z,7.74
2018-05-01T03:29:47.897Z,7.85
2018-05-01T03:30:55.945Z,7.78
2018-05-01T03:32:04.009Z,7.69
2018-05-01T03:33:12.077Z,7.81
2018-05-01T03:34:20.134Z,7.70
2018-05-01T03:35:28.187Z,7.64
2018-05-01T03:36:36.245Z,7.67
2018-05-01T03:37:44.314Z,7.70
2018-05-01T03:38:52.375Z,7.69
2018-05-01T03:40:00.434Z,7.72
2018-05-01T03:41:08.493Z,7.74
2018-05-01T03:42:16.555Z,7.75
2018-05-01T03:43:24.598Z,7.77
2018-05-01T03:44:32.672Z,7.74
2018-05-01T03:45:40.728Z,7.59
2018-05-01T03:46:48.784Z,7.66
2018-05-01T03:47:56.845Z,7.62
2018-05-01T03:49:04.877Z,7.66
2018-05-01T03:50:12.968Z,7.61
2018-05-01T03:51:21.033Z,7.69
2018-05-01T03:52:29.083Z,7.53
2018-05-01T03:53:37.145Z,7.55
2018-05-01T03:54:45.172Z,7.59
2018-05-01T03:55:53.318Z,7.58
2018-05-01T03:57:01.326Z,7.53
2018-05-01T03:58:09.381Z,7.55
2018-05-01T03:59:17.450Z,7.44
2018-05-01T04:00:25.507Z,7.53
2018-05-01T04:01:33.577Z,7.59
2018-05-01T04:02:41.627Z,7.50
2018-05-01T04:03:49.686Z,7.55
2018-05-01T04:04:57.744Z,7.56
2018-05-01T04:06:05.791Z,7.48
2018-05-01T04:07:13.854Z,7.58
2018-05-01T04:08:21.919Z,7.62
2018-05-01T04:09:29.985Z,7.58
2018-05-01T04:10:38.050Z,7.58
2018-05-01T04:11:46.101Z,7.66
2018-05-01T04:12:54.168Z,7.58
2018-05-01T04:14:02.203Z,7.56
2018-05-01T04:15:10.281Z,7.55
2018-05-01T04:16:18.347Z,7.69
2018-05-01T04:17:26.399Z,7.64
2018-05-01T04:18:34.456Z,7.77
2018-05-01T04:19:42.521Z,7.59
2018-05-01T04:20:50.577Z,7.66
2018-05-01T04:21:58.631Z,7.66
2018-05-01T04:23:06.694Z,7.70
2018-05-01T04:24:14.728Z,7.74
2018-05-01T04:25:22.856Z,7.66
2018-05-01T04:26:30.873Z,7.72
2018-05-01T04:27:38.929Z,7.69
2018-05-01T04:28:46.988Z,7.75
2018-05-01T04:29:55.024Z,7.66
2018-05-01T04:31:03.121Z,7.70
2018-05-01T04:32:11.174Z,7.66
2018-05-01T04:33:19.233Z,7.70
2018-05-01T04:34:27.293Z,7.72
2018-05-01T04:35:35.335Z,7.72
2018-05-01T04:36:43.407Z,7.56
2018-05-01T04:37:51.475Z,7.56
2018-05-01T04:38:59.531Z,7.64
2018-05-01T04:40:07.576Z,7.69
2018-05-01T04:41:15.634Z,7.59
2018-05-01T04:42:23.718Z,7.59
2018-05-01T04:43:31.768Z,7.64
2018-05-01T04:44:39.830Z,7.67
2018-05-01T04:45:47.887Z,7.66
2018-05-01T04:46:55.945Z,7.66
2018-05-01T04:48:03.992Z,7.72
2018-05-01T04:49:12.073Z,7.69
2018-05-01T04:50:20.128Z,7.78
2018-05-01T04:51:28.185Z,7.74
2018-05-01T04:52:36.236Z,7.72
2018-05-01T04:53:44.305Z,7.74
2018-05-01T04:54:52.365Z,7.74
2018-05-01T04:56:00.424Z,7.64
2018-05-01T04:57:08.479Z,7.56
2018-05-01T04:58:16.542Z,7.58
2018-05-01T04:59:24.582Z,7.51
2018-05-01T05:00:32.658Z,7.56
2018-05-01T05:01:40.723Z,7.62
2018-05-01T05:02:48.777Z,7.55
2018-05-01T05:03:56.833Z,7.61
2018-05-01T05:05:04.868Z,7.59
2018-05-01T05:06:12.956Z,7.56
2018-05-01T05:07:21.012Z,7.61
2018-05-01T05:08:29.065Z,7.58
2018-05-01T05:09:37.149Z,7.55
2018-05-01T05:10:45.166Z,7.53
2018-05-01T05:11:53.263Z,7.58
2018-05-01T05:13:01.314Z,7.55
2018-05-01T05:14:09.378Z,7.58
2018-05-01T05:15:17.434Z,7.66
2018-05-01T05:16:25.474Z,7.72
2018-05-01T05:17:33.539Z,7.69
2018-05-01T05:18:41.602Z,7.69
2018-05-01T05:19:49.676Z,7.69
2018-05-01T05:20:57.726Z,7.72
2018-05-01T05:22:05.784Z,7.70
2018-05-01T05:23:13.853Z,7.75
2018-05-01T05:24:21.919Z,7.72
2018-05-01T05:25:29.974Z,7.70
2018-05-01T05:26:38.035Z,7.70
2018-05-01T05:27:46.101Z,7.77
2018-05-01T05:28:54.155Z,7.78
2018-05-01T05:30:02.201Z,7.85
2018-05-01T05:31:10.267Z,7.85
2018-05-01T05:32:18.332Z,7.83
2018-05-01T05:33:26.394Z,7.90
2018-05-01T05:34:34.455Z,7.87
2018-05-01T05:35:42.501Z,7.87
2018-05-01T05:36:50.695Z,7.91
2018-05-01T05:37:58.632Z,7.96
2018-05-01T05:39:06.680Z,7.88
2018-05-01T05:40:14.737Z,7.99
2018-05-01T05:41:22.822Z,7.98
2018-05-01T05:42:30.864Z,7.93
2018-05-01T05:43:38.931Z,7.96
2018-05-01T05:44:46.990Z,8.06
2018-05-01T05:45:55.018Z,8.09
2018-05-01T05:47:03.139Z,8.09
2018-05-01T05:48:11.171Z,8.08
2018-05-01T05:49:19.219Z,8.03
2018-05-01T05:50:27.281Z,8.05
2018-05-01T05:51:35.321Z,7.99
2018-05-01T05:52:43.406Z,8.05
2018-05-01T05:53:51.460Z,8.16
2018-05-01T05:54:59.519Z,8.11
2018-05-01T05:56:07.588Z,8.20
2018-05-01T05:57:15.646Z,8.16
2018-05-01T05:58:23.694Z,8.13
2018-05-01T05:59:31.764Z,8.31
2018-05-01T06:00:39.829Z,8.28
2018-05-01T06:01:47.881Z,8.38
2018-05-01T06:02:56.540Z,8.41
2018-05-01T06:05:18.749Z,8.39
2018-05-01T06:06:26.866Z,8.41
2018-05-01T06:07:34.874Z,8.38
2018-05-01T06:09:50.985Z,8.36
2018-05-01T06:10:59.056Z,8.28
2018-05-01T06:12:07.108Z,8.31
2018-05-01T06:13:15.179Z,8.24
2018-05-01T06:14:23.240Z,8.26
2018-05-01T06:15:31.292Z,8.26
2018-05-01T06:16:39.347Z,8.24
2018-05-01T06:17:47.404Z,8.18
2018-05-01T06:18:55.464Z,8.18
2018-05-01T06:20:03.588Z,8.20
2018-05-01T06:21:11.594Z,8.17
2018-05-01T06:22:19.669Z,8.14
2018-05-01T06:23:27.714Z,8.18
2018-05-01T06:24:35.775Z,8.14
2018-05-01T06:25:43.833Z,8.20
2018-05-01T06:26:52.326Z,8.18
2018-05-01T06:27:59.939Z,8.24
2018-05-01T06:29:08.191Z,8.21
2018-05-01T06:30:16.554Z,8.13
2018-05-01T06:31:24.217Z,8.16
2018-05-01T06:32:32.178Z,8.18
2018-05-01T06:33:40.280Z,8.23
2018-05-01T06:34:48.331Z,8.23
2018-05-01T06:35:56.402Z,8.14
2018-05-01T06:37:04.441Z,8.24
2018-05-01T06:38:12.468Z,8.28
2018-05-01T06:39:20.573Z,8.26
2018-05-01T06:40:28.628Z,8.32
2018-05-01T06:41:36.682Z,8.27
2018-05-01T06:42:44.751Z,8.38
2018-05-01T06:43:52.834Z,8.36
2018-05-01T06:45:00.872Z,8.32
2018-05-01T06:46:09.034Z,8.38
2018-05-01T06:47:16.973Z,8.39
2018-05-01T06:48:25.038Z,8.39
2018-05-01T06:49:33.085Z,8.41
2018-05-01T06:50:41.199Z,8.41
2018-05-01T06:51:49.230Z,8.36
2018-05-01T06:52:57.291Z,8.41
2018-05-01T06:54:05.352Z,8.36
2018-05-01T06:55:13.431Z,8.41
2018-05-01T06:56:21.456Z,8.39
2018-05-01T06:57:29.525Z,8.36
2018-05-01T06:58:37.581Z,8.44
2018-05-01T06:59:45.639Z,8.42
2018-05-01T07:00:54.022Z,8.38
2018-05-01T07:02:01.776Z,8.44
2018-05-01T07:03:09.824Z,8.41
2018-05-01T07:04:17.911Z,8.42
2018-05-01T07:05:25.947Z,8.41
2018-05-01T07:06:34.011Z,8.41
2018-05-01T07:07:42.060Z,8.41
2018-05-01T07:08:50.129Z,8.41
2018-05-01T07:09:58.228Z,8.41
2018-05-01T07:11:06.268Z,8.41
2018-05-01T07:12:14.310Z,8.50
2018-05-01T07:13:22.358Z,8.54
2018-05-01T07:14:30.450Z,8.63
2018-05-01T07:15:38.488Z,8.63
2018-05-01T07:16:46.562Z,8.64
2018-05-01T07:17:54.605Z,8.71
2018-05-01T07:19:02.657Z,8.84
2018-05-01T07:20:10.761Z,8.79
2018-05-01T07:21:18.840Z,8.92
2018-05-01T07:22:26.886Z,8.93
2018-05-01T07:23:34.947Z,9.05
2018-05-01T07:24:42.980Z,8.96
2018-05-01T07:25:51.039Z,9.00
2018-05-01T07:26:59.827Z,8.96
2018-05-01T07:28:07.161Z,9.05
2018-05-01T07:29:15.213Z,8.96
2018-05-01T07:30:23.310Z,9.00
2018-05-01T07:31:31.350Z,8.96
2018-05-01T07:32:39.409Z,8.97
2018-05-01T07:33:47.447Z,8.99
2018-05-01T07:34:55.521Z,9.03
2018-05-01T07:36:03.599Z,9.12
2018-05-01T07:37:11.652Z,9.03
2018-05-01T07:38:19.720Z,9.02
2018-05-01T07:39:27.773Z,9.02
2018-05-01T07:40:35.825Z,9.09
2018-05-01T07:41:43.904Z,9.03
2018-05-01T07:42:51.965Z,9.12
2018-05-01T07:44:00.018Z,9.13
2018-05-01T07:45:08.069Z,9.18
2018-05-01T07:46:16.313Z,9.13
2018-05-01T07:47:24.196Z,9.19
2018-05-01T07:48:32.224Z,9.16
2018-05-01T07:49:40.315Z,9.22
2018-05-01T07:50:48.389Z,9.13
2018-05-01T07:51:56.435Z,9.22
2018-05-01T07:53:04.481Z,9.15
2018-05-01T07:54:12.546Z,9.29
2018-05-01T07:55:20.629Z,9.30
2018-05-01T07:56:28.708Z,9.21
2018-05-01T07:57:36.732Z,9.33
2018-05-01T07:58:44.810Z,9.42
2018-05-01T07:59:52.859Z,9.51
2018-05-01T08:01:00.920Z,9.39
2018-05-01T08:02:08.994Z,9.52
2018-05-01T08:03:17.086Z,9.58
2018-05-01T08:04:25.118Z,9.56
2018-05-01T08:05:33.174Z,9.69
2018-05-01T08:06:41.238Z,9.59
2018-05-01T08:07:49.293Z,9.56
2018-05-01T08:08:57.361Z,9.59
2018-05-01T08:10:05.405Z,9.54
2018-05-01T08:11:13.461Z,9.55
2018-05-01T08:12:21.557Z,9.59
2018-05-01T08:13:29.606Z,9.56
2018-05-01T08:14:37.648Z,9.59
2018-05-01T08:15:45.729Z,9.54
2018-05-01T08:16:53.795Z,9.45
2018-05-01T08:18:01.857Z,9.55
2018-05-01T08:19:09.895Z,9.45
2018-05-01T08:20:17.956Z,9.49
2018-05-01T08:21:26.034Z,9.48
2018-05-01T08:22:34.099Z,9.58
2018-05-01T08:23:42.140Z,9.56
2018-05-01T08:24:50.216Z,9.49
2018-05-01T08:25:58.273Z,9.52
2018-05-01T08:27:06.358Z,9.56
2018-05-01T08:28:14.441Z,9.55
2018-05-01T08:29:22.441Z,9.47
2018-05-01T08:30:30.590Z,9.42
2018-05-01T08:31:38.591Z,9.48
2018-05-01T08:32:46.705Z,9.51
2018-05-01T08:33:54.712Z,9.42
2018-05-01T08:35:02.790Z,9.47
2018-05-01T08:36:10.847Z,9.44
2018-05-01T08:37:18.906Z,9.45
2018-05-01T08:38:26.970Z,9.49
2018-05-01T08:39:35.037Z,9.56
2018-05-01T08:40:43.079Z,9.52
2018-05-01T08:41:51.147Z,9.51
2018-05-01T08:42:59.192Z,9.48
2018-05-01T08:44:07.275Z,9.52
2018-05-01T08:45:15.421Z,9.59
2018-05-01T08:46:23.397Z,9.72
2018-05-01T08:47:31.451Z,9.66
2018-05-01T08:48:39.543Z,9.69
2018-05-01T08:49:47.582Z,9.80
2018-05-01T08:50:55.623Z,9.69
2018-05-01T08:52:03.695Z,9.87
2018-05-01T08:53:11.761Z,9.94
2018-05-01T08:54:19.802Z,9.91
2018-05-01T08:55:27.879Z,9.92
2018-05-01T08:56:35.945Z,9.91
2018-05-01T08:57:44.004Z,9.91
2018-05-01T08:58:52.067Z,9.95
2018-05-01T09:00:00.157Z,9.97
2018-05-01T09:01:08.208Z,9.97
2018-05-01T09:02:16.258Z,9.99
2018-05-01T09:03:24.315Z,10.15
2018-05-01T09:04:32.361Z,10.20
2018-05-01T09:05:40.434Z,10.28
2018-05-01T09:06:48.526Z,10.23
2018-05-01T09:07:56.554Z,10.12
2018-05-01T09:09:04.614Z,10.12
2018-05-01T09:10:12.648Z,10.00
2018-05-01T09:11:20.733Z,9.97
2018-05-01T09:12:28.797Z,10.06
2018-05-01T09:13:36.856Z,10.03
2018-05-01T09:14:44.926Z,10.03
2018-05-01T09:15:52.977Z,10.10
2018-05-01T09:17:01.053Z,10.13
2018-05-01T09:18:09.212Z,10.24
2018-05-01T09:19:17.163Z,10.30
2018-05-01T09:20:25.222Z,10.38
2018-05-01T09:21:33.288Z,10.51
2018-05-01T09:22:41.343Z,10.61
2018-05-01T09:23:49.438Z,10.64
2018-05-01T09:24:57.486Z,10.61
2018-05-01T09:26:05.544Z,10.58
2018-05-01T09:27:13.605Z,10.62
2018-05-01T09:28:21.667Z,10.42
2018-05-01T09:29:29.736Z,10.45
2018-05-01T09:30:37.785Z,10.42
2018-05-01T09:31:45.864Z,10.38
2018-05-01T09:32:53.913Z,10.31
2018-05-01T09:34:01.967Z,10.36
2018-05-01T09:35:10.124Z,10.24
2018-05-01T09:36:18.103Z,10.28
2018-05-01T09:37:26.156Z,10.38
2018-05-01T09:38:34.221Z,10.43
2018-05-01T09:39:42.295Z,10.53
2018-05-01T09:40:50.341Z,10.43
2018-05-01T09:41:58.476Z,10.53
2018-05-01T09:43:06.472Z,10.42
2018-05-01T09:44:14.541Z,10.57
2018-05-01T09:45:22.575Z,10.68
2018-05-01T09:46:30.661Z,10.68
2018-05-01T09:47:38.776Z,10.72
2018-05-01T09:48:46.791Z,10.77
2018-05-01T09:49:54.869Z,10.94
2018-05-01T09:51:02.901Z,10.98
2018-05-01T09:52:10.980Z,11.04
2018-05-01T09:53:19.063Z,11.12
2018-05-01T09:54:27.104Z,11.16
2018-05-01T09:55:35.161Z,11.22
2018-05-01T09:56:43.234Z,11.31
2018-05-01T09:57:51.293Z,11.35
2018-05-01T09:58:59.354Z,11.40
2018-05-01T10:00:07.446Z,11.34
2018-05-01T10:01:15.487Z,11.30
2018-05-01T10:02:23.537Z,11.25
2018-05-01T10:03:31.614Z,11.15
2018-05-01T10:04:39.674Z,11.05
2018-05-01T10:05:47.721Z,11.12
2018-05-01T10:06:55.795Z,11.13
2018-05-01T10:08:03.866Z,11.10
2018-05-01T10:09:11.908Z,10.80
2018-05-01T10:10:19.983Z,10.79
2018-05-01T10:11:28.049Z,10.61
2018-05-01T10:12:36.113Z,10.58
2018-05-01T10:13:44.164Z,10.59
2018-05-01T10:14:52.215Z,10.61
2018-05-01T10:16:00.299Z,10.64
2018-05-01T10:17:08.375Z,10.84
2018-05-01T10:18:16.457Z,10.95
2018-05-01T10:19:24.498Z,11.16
2018-05-01T10:20:32.536Z,11.22
2018-05-01T10:21:40.617Z,11.51
2018-05-01T10:22:48.681Z,11.51
2018-05-01T10:23:56.739Z,11.58
2018-05-01T10:25:04.811Z,11.80
2018-05-01T10:26:12.864Z,11.91
2018-05-01T10:27:20.925Z,12.18
2018-05-01T10:28:29.001Z,12.14
2018-05-01T10:29:37.060Z,12.12
2018-05-01T10:30:45.139Z,12.18
2018-05-01T10:31:53.188Z,12.29
2018-05-01T10:33:01.252Z,12.30
2018-05-01T10:34:09.320Z,12.26
2018-05-01T10:35:17.380Z,12.26
2018-05-01T10:36:25.436Z,12.26
2018-05-01T10:37:33.497Z,12.37
2018-05-01T10:38:41.688Z,12.26
2018-05-01T10:39:49.636Z,12.39
2018-05-01T10:40:57.699Z,12.30
2018-05-01T10:42:05.767Z,12.29
2018-05-01T10:43:13.832Z,12.29
2018-05-01T10:44:21.950Z,12.30
2018-05-01T10:45:29.966Z,12.11
2018-05-01T10:46:38.026Z,12.03
2018-05-01T10:47:46.084Z,12.11
2018-05-01T10:48:54.138Z,12.11
2018-05-01T10:50:02.195Z,12.07
2018-05-01T10:51:10.272Z,11.93
2018-05-01T10:52:18.360Z,11.93
2018-05-01T10:53:26.401Z,11.99
2018-05-01T10:54:34.557Z,12.12
2018-05-01T10:55:42.544Z,11.93
2018-05-01T10:56:50.603Z,12.08
2018-05-01T10:57:58.670Z,12.10
2018-05-01T10:59:06.736Z,12.18
2018-05-01T11:00:14.821Z,12.33
2018-05-01T11:01:22.834Z,12.44
2018-05-01T11:02:30.913Z,12.43
2018-05-01T11:03:38.981Z,12.58
2018-05-01T11:04:47.051Z,12.57
2018-05-01T11:05:55.129Z,12.70
2018-05-01T11:07:03.176Z,12.70
2018-05-01T11:08:11.241Z,12.98
2018-05-01T11:09:19.300Z,13.05
2018-05-01T11:10:27.373Z,12.95
2018-05-01T11:11:35.440Z,12.99
2018-05-01T11:12:43.496Z,13.05
2018-05-01T11:13:51.582Z,13.06
2018-05-01T11:14:59.633Z,13.09
2018-05-01T11:16:07.700Z,13.19
2018-05-01T11:17:15.771Z,13.02
2018-05-01T11:18:23.835Z,13.02
2018-05-01T11:19:31.889Z,12.98
2018-05-01T11:20:39.979Z,12.95
2018-05-01T11:21:48.041Z,12.91
2018-05-01T11:22:56.110Z,12.93
2018-05-01T11:24:04.169Z,13.05
2018-05-01T11:25:12.208Z,12.91
2018-05-01T11:26:20.413Z,13.05
2018-05-01T11:27:28.373Z,13.02
2018-05-01T11:28:36.462Z,12.86
2018-05-01T11:29:44.494Z,13.02
2018-05-01T11:30:52.554Z,13.05
2018-05-01T11:32:00.621Z,13.03
2018-05-01T11:33:08.677Z,13.05
2018-05-01T11:34:16.758Z,12.99
2018-05-01T11:35:24.828Z,12.93
2018-05-01T11:36:32.853Z,13.09
2018-05-01T11:37:40.953Z,13.16
2018-05-01T11:38:49.027Z,13.12
2018-05-01T11:39:57.089Z,13.05
2018-05-01T11:41:05.160Z,13.19
2018-05-01T11:42:13.204Z,13.23
2018-05-01T11:43:21.265Z,13.33
2018-05-01T11:44:29.416Z,13.43
2018-05-01T11:45:37.570Z,13.21
2018-05-01T11:46:45.473Z,13.39
2018-05-01T11:47:53.548Z,13.46
2018-05-01T11:49:01.602Z,13.47
2018-05-01T11:50:09.667Z,13.49
2018-05-01T11:51:17.725Z,13.37
2018-05-01T11:52:25.797Z,13.46
2018-05-01T11:53:33.871Z,13.58
2018-05-01T11:54:41.951Z,13.62
2018-05-01T11:55:50.005Z,13.52
2018-05-01T11:56:58.040Z,13.61
2018-05-01T11:58:06.140Z,13.78
2018-05-01T11:59:14.191Z,13.67
2018-05-01T12:00:22.232Z,13.64
2018-05-01T12:01:30.335Z,13.65
2018-05-01T12:02:38.480Z,13.47
2018-05-01T12:03:46.460Z,13.31
2018-05-01T12:04:54.525Z,13.37
2018-05-01T12:06:02.567Z,13.70
2018-05-01T12:07:10.653Z,13.65
2018-05-01T12:08:18.717Z,13.79
2018-05-01T12:09:26.773Z,13.82
2018-05-01T12:10:36.007Z,13.94
2018-05-01T12:11:42.905Z,14.12
2018-05-01T12:12:51.066Z,14.05
2018-05-01T12:13:59.067Z,14.19
2018-05-01T12:15:07.110Z,14.26
2018-05-01T12:16:15.258Z,14.41
2018-05-01T12:17:23.244Z,14.20
2018-05-01T12:18:31.346Z,14.22
2018-05-01T12:19:39.383Z,14.18
2018-05-01T12:20:47.443Z,14.36
2018-05-01T12:21:55.526Z,14.30
2018-05-01T12:23:03.592Z,14.33
2018-05-01T12:24:11.650Z,14.34
2018-05-01T12:25:19.714Z,14.45
2018-05-01T12:26:27.780Z,14.18
2018-05-01T12:27:35.850Z,14.04
2018-05-01T12:28:43.906Z,14.01
2018-05-01T12:29:51.997Z,14.04
2018-05-01T12:31:00.036Z,14.23
2018-05-01T12:32:08.126Z,14.25
2018-05-01T12:33:16.174Z,14.03
2018-05-01T12:34:24.249Z,14.01
2018-05-01T12:35:32.298Z,13.97
2018-05-01T12:36:40.462Z,13.82
2018-05-01T12:37:48.451Z,13.80
2018-05-01T12:38:56.517Z,13.76
2018-05-01T12:40:04.569Z,13.85
2018-05-01T12:41:12.615Z,13.82
2018-05-01T12:42:20.766Z,13.89
2018-05-01T12:43:28.774Z,13.94
2018-05-01T12:44:36.841Z,13.94
2018-05-01T12:45:44.905Z,13.97
2018-05-01T12:46:52.966Z,13.95
2018-05-01T12:48:01.051Z,14.00
2018-05-01T12:49:09.107Z,14.00
2018-05-01T12:50:17.164Z,14.04
2018-05-01T12:51:25.246Z,13.83
2018-05-01T12:52:33.308Z,13.76
2018-05-01T12:53:41.373Z,13.76
2018-05-01T12:54:49.446Z,13.45
2018-05-01T12:55:57.516Z,13.26
2018-05-01T12:57:05.558Z,13.37
2018-05-01T12:58:13.634Z,13.43
2018-05-01T12:59:21.688Z,13.50
2018-05-01T13:00:29.783Z,13.64
2018-05-01T13:01:37.848Z,13.71
2018-05-01T13:02:45.897Z,13.68
2018-05-01T13:03:53.979Z,13.68
2018-05-01T13:05:02.103Z,13.71
2018-05-01T13:06:10.170Z,13.65
2018-05-01T13:07:18.182Z,13.54
2018-05-01T13:08:26.241Z,13.47
2018-05-01T13:09:34.323Z,13.46
2018-05-01T13:10:42.338Z,13.33
2018-05-01T13:11:50.430Z,13.40
2018-05-01T13:12:58.505Z,13.39
2018-05-01T13:14:06.558Z,13.43
2018-05-01T13:15:14.623Z,13.36
2018-05-01T13:16:22.672Z,13.36
2018-05-01T13:17:30.760Z,13.43
2018-05-01T13:18:38.852Z,13.49
2018-05-01T13:19:46.905Z,13.58
2018-05-01T13:20:55.030Z,13.67
2018-05-01T13:22:03.010Z,13.82
2018-05-01T13:23:11.082Z,13.89
2018-05-01T13:24:19.170Z,13.98
2018-05-01T13:25:27.216Z,14.08
2018-05-01T13:26:35.285Z,14.30
2018-05-01T13:27:43.351Z,14.41
2018-05-01T13:28:51.410Z,14.51
2018-05-01T13:29:59.479Z,14.66
2018-05-01T13:31:07.550Z,14.81
2018-05-01T13:32:15.618Z,14.82
2018-05-01T13:33:23.683Z,14.96
2018-05-01T13:34:31.747Z,14.93
2018-05-01T13:35:39.822Z,15.12
2018-05-01T13:36:47.886Z,15.08
2018-05-01T13:37:56.030Z,15.25
2018-05-01T13:39:04.020Z,15.18
2018-05-01T13:40:12.087Z,15.19
2018-05-01T13:41:20.155Z,15.10
2018-05-01T13:42:28.207Z,15.02
2018-05-01T13:43:36.286Z,15.00
2018-05-01T13:44:44.344Z,14.96
2018-05-01T13:45:52.384Z,15.00
2018-05-01T13:47:00.471Z,15.11
2018-05-01T13:48:08.549Z,15.07
2018-05-01T13:49:16.604Z,15.12
2018-05-01T13:50:24.673Z,15.07
2018-05-01T13:51:32.737Z,14.97
2018-05-01T13:52:40.801Z,15.17
2018-05-01T13:53:48.879Z,15.07
2018-05-01T13:54:56.966Z,14.92
2018-05-01T13:56:05.015Z,14.85
2018-05-01T13:57:13.139Z,14.85
2018-05-01T13:58:21.150Z,14.77
2018-05-01T13:59:29.200Z,14.96
2018-05-01T14:00:37.338Z,14.89
2018-05-01T14:01:45.354Z,14.96
2018-05-01T14:02:53.399Z,15.15
2018-05-01T14:04:01.478Z,14.96
2018-05-01T14:05:09.545Z,15.10
2018-05-01T14:06:17.680Z,15.12
2018-05-01T14:07:25.675Z,15.00
2018-05-01T14:08:33.733Z,14.97
2018-05-01T14:09:41.810Z,14.94
2018-05-01T14:10:49.889Z,15.00
2018-05-01T14:11:57.954Z,15.29
2018-05-01T14:13:06.054Z,15.27
2018-05-01T14:14:14.070Z,15.10
2018-05-01T14:15:22.146Z,15.15
2018-05-01T14:16:30.208Z,15.26
2018-05-01T14:17:38.278Z,15.17
2018-05-01T14:18:46.342Z,15.14
2018-05-01T14:19:54.409Z,14.94
2018-05-01T14:21:02.456Z,14.96
2018-05-01T14:22:10.527Z,14.85
2018-05-01T14:23:18.596Z,14.82
2018-05-01T14:24:26.678Z,14.85
2018-05-01T14:25:34.900Z,14.62
2018-05-01T14:26:42.845Z,14.59
2018-05-01T14:27:50.888Z,14.52
2018-05-01T14:28:58.949Z,14.58
2018-05-01T14:30:06.985Z,14.59
2018-05-01T14:31:15.081Z,14.48
2018-05-01T14:32:23.151Z,14.51
2018-05-01T14:33:31.205Z,14.66
2018-05-01T14:34:39.261Z,14.63
2018-05-01T14:35:47.326Z,14.67
2018-05-01T14:36:55.390Z,14.66
2018-05-01T14:38:03.461Z,14.67
2018-05-01T14:39:11.535Z,14.66
2018-05-01T14:40:19.599Z,14.71
2018-05-01T14:41:27.645Z,14.55
2018-05-01T14:42:35.728Z,14.66
2018-05-01T14:43:43.805Z,14.67
2018-05-01T14:44:51.850Z,14.70
2018-05-01T14:45:59.925Z,14.74
2018-05-01T14:47:08.009Z,14.78
2018-05-01T14:48:16.069Z,14.81
2018-05-01T14:49:24.137Z,14.96
2018-05-01T14:50:32.168Z,15.02
2018-05-01T14:51:40.271Z,15.02
2018-05-01T14:52:48.323Z,15.11
2018-05-01T14:53:56.393Z,14.92
2018-05-01T14:55:04.460Z,14.86
2018-05-01T14:56:12.532Z,14.78
2018-05-01T14:57:20.585Z,14.68